Flight Track Log - Related Links

Times and Time Zones

All times are in EDT time to prevent confusion due to time zone crossing. See the SWA394 flight status page for this flight to view local times or setup timezone preferences in your user account.

Time Position Orientation Groundspeed Altitude Reporting Facility
EDT Latitude Longitude Course Direction KTS MPH feet Rate Location/Type
Tue 11:33:50 AM 40.7528 -112.0344 248° West 223 257 6,300  Level Salt Lake Center
Tue 11:34:19 AM 40.7575 -112.0678 281° West 247 284 6,900 2,300 Climbing Salt Lake Center
Tue 11:34:50 AM 40.7956 -112.0992 328° Northwest 267 307 8,600 2,952 Climbing Salt Lake Center
Tue 11:35:22 AM 40.8206 -112.0842 24° Northeast 260 299 10,000 3,097 Climbing Salt Lake Center
Tue 11:35:52 AM 40.8397 -112.0275 66° East 282 325 11,800 3,290 Climbing Salt Lake Center
Tue 11:36:24 AM 40.8522 -111.9653 75° East 304 350 13,400 3,064 Climbing Salt Lake Center
Tue 11:37:26 AM 40.8753 -111.8525 75° East 323 372 16,600 2,613 Climbing Salt Lake Center
Tue 11:38:28 AM 40.9000 -111.7350 74° East 342 394 18,800 1,984 Climbing Salt Lake Center
Tue 11:39:30 AM 40.9231 -111.6044 77° East 372 428 20,700 1,984 Climbing Salt Lake Center
Tue 11:40:32 AM 40.9139 -111.4586 95° East 399 459 22,900 2,468 Climbing Salt Lake Center
Tue 11:41:34 AM 40.8953 -111.2789 98° East 413 475 25,800 2,323 Climbing Salt Lake Center
Tue 11:42:36 AM 40.8772 -111.1258 99° East 421 484 27,700 1,742 Climbing Salt Lake Center
Tue 11:43:38 AM 40.8572 -110.9675 99° East 436 502 29,400 1,597 Climbing Salt Lake Center
Tue 11:44:40 AM 40.8383 -110.8025 99° East 454 522 31,000 1,694 Climbing Salt Lake Center
Tue 11:45:42 AM 40.8167 -110.6356 100° East 461 531 32,900 1,935 Climbing Salt Lake Center
Tue 11:46:44 AM 40.7939 -110.4456 99° East 459 528 35,000 1,694 Climbing Salt Lake Center
Tue 11:47:46 AM 40.7733 -110.2889 100° East 456 525 36,400 1,403 Climbing Salt Lake Center
Tue 11:48:48 AM 40.7500 -110.1086 100° East 460 529 37,900 1,258 Climbing Salt Lake Center
Tue 11:49:50 AM 40.7336 -109.9250 97° East 453 521 39,000 532 Climbing Salt Lake Center
Tue 11:50:52 AM 40.7225 -109.7647 95° East 456 525 39,000  Level Salt Lake Center
Tue 11:51:54 AM 40.7117 -109.6061 95° East 455 524 39,000  Level Salt Lake Center
Tue 11:52:56 AM 40.6981 -109.4194 95° East 458 527 39,000 -145 Level Salt Lake Center
Tue 11:53:58 AM 40.6856 -109.2625 96° East 453 521 38,700 -677 Descending Salt Lake Center
Tue 11:55:00 AM 40.6711 -109.0758 96° East 458 527 37,600 -823 Descending Salt Lake Center
Tue 11:56:02 AM 40.6583 -108.9150 96° East 461 531 37,000 -290 Descending Salt Lake Center
Tue 11:57:04 AM 40.7050 -108.7394 71° East 484 557 37,000  Level Salt Lake Center
Tue 11:58:06 AM 40.8106 -108.6489 33° Northeast 477 549 37,000  Level Salt Lake Center
Tue 11:59:09 AM 40.9306 -108.5558 30° Northeast 452 520 37,000 -144 Level Salt Lake Center
Tue 12:00:11 PM 41.0350 -108.4706 32° Northeast 461 531 36,700 -677 Descending Salt Lake Center
Tue 12:01:13 PM 41.1567 -108.3717 31° Northeast 463 533 35,600 -823 Descending Salt Lake Center
Tue 12:02:15 PM 41.2261 -108.2431 54° Northeast 471 542 35,000 -290 Descending Salt Lake Center
Tue 12:03:17 PM 41.1756 -108.0833 113° Southeast 434 499 35,000  Level Salt Lake Center
Tue 12:04:19 PM 41.0900 -107.9847 139° Southeast 426 490 35,000 -484 Level Salt Lake Center
Tue 12:05:21 PM 40.9931 -107.8672 138° Southeast 422 486 34,000 -968 Descending Salt Lake Center
Tue 12:06:23 PM 40.9111 -107.7700 138° Southeast 417 480 33,000 -532 Descending Salt Lake Center
Tue 12:07:25 PM 40.8147 -107.6550 138° Southeast 416 479 32,900 -435 Descending Salt Lake Center
Tue 12:08:27 PM 40.7364 -107.5608 138° Southeast 402 463 32,100 -919 Descending Salt Lake Center
Tue 12:09:29 PM 40.6489 -107.4589 139° Southeast 377 434 31,000 -471 Descending Salt Lake Center
Tue 12:10:47 PM 40.5500 -107.3400 138° Southeast 368 423 31,000  Level Denver Center
Tue 12:12:01 PM 40.5169 -107.2194 110° East 381 438 31,000 -438 Level Denver Center
Tue 12:13:04 PM 40.5078 -107.0478 94° East 392 451 30,000 -480 Descending Denver Center
Tue 12:14:06 PM 40.4989 -106.9094 95° East 383 441 30,000 -435 Level Denver Center
Tue 12:15:08 PM 40.4914 -106.7706 94° East 381 438 29,100 -919 Descending Denver Center
Tue 12:16:10 PM 40.4833 -106.6378 95° East 368 423 28,100 -1,016 Descending Denver Center
Tue 12:17:12 PM 40.4744 -106.4806 94° East 361 415 27,000 -532 Descending Denver Center
Tue 12:18:14 PM 40.4667 -106.3561 95° East 358 412 27,000  Level Denver Center
Tue 12:19:16 PM 40.4572 -106.1975 94° East 391 450 27,000  Level Denver Center
Tue 12:20:18 PM 40.4494 -106.0536 94° East 399 459 27,000  Level Denver Center
Tue 12:21:20 PM 40.4333 -105.9100 98° East 398 458 27,000 -435 Level Denver Center
Tue 12:22:22 PM 40.4103 -105.7700 102° East 394 453 26,100 -1,306 Descending Denver Center
Tue 12:23:24 PM 40.3881 -105.6333 102° East 387 445 24,300 -1,742 Descending Denver Center
Tue 12:24:26 PM 40.3667 -105.4986 102° East 379 436 22,500 -1,824 Descending Denver Center
Tue 12:25:29 PM 40.3122 -105.3681 119° Southeast 363 418 20,500 -1,776 Descending Denver Center
Tue 12:26:31 PM 40.2494 -105.2617 128° Southeast 347 399 18,800 -1,355 Descending Denver Center
Tue 12:27:33 PM 40.1953 -105.1622 125° Southeast 337 388 17,700 -1,016 Descending Denver Center
Tue 12:28:35 PM 40.1361 -105.0572 126° Southeast 334 384 16,700 -1,210 Descending Denver Center
Tue 12:29:37 PM 40.0819 -104.9594 126° Southeast 331 381 15,200 -1,452 Descending Denver Center
Tue 12:30:39 PM 40.0292 -104.8647 126° Southeast 327 376 13,700 -1,500 Descending Denver Center
Tue 12:31:41 PM 39.9508 -104.8036 149° Southeast 309 356 12,100 -1,268 Descending Denver Center
Tue 12:32:42 PM 39.8836 -104.7950 174° South 290 334 11,100 -532 Descending Denver Center
Tue 12:33:45 PM 39.7911 -104.7933 179° South 273 314 11,000 -336 Descending Denver Center
Tue 12:34:47 PM 39.7142 -104.7931 180° South 259 298 10,400 -484 Descending Denver Center
Tue 12:35:49 PM 39.6461 -104.7939 181° South 248 285 10,000 -194 Descending Denver Center
Tue 12:36:51 PM 39.5728 -104.7778 170° South 250 288 10,000  Level Denver Center
Tue 12:37:53 PM 39.5692 -104.7033 94° East 221 254 10,000 -194 Level Denver Center
Tue 12:38:55 PM 39.6369 -104.6897 North 228 262 9,600 -774 Descending Denver Center
Tue 12:39:57 PM 39.6992 -104.6892 360° North 224 258 8,400 -1,113 Descending Denver Center
Tue 12:40:59 PM 39.7589 -104.6883 North 216 249 7,300 -926 Descending Denver Center
Tue 12:42:13 PM 39.8144 -104.6872 North 180 207 6,300 -832 Descending Denver Center
Tue 12:43:16 PM 39.8650 -104.6872 360° North 149 171 5,400 -857 Descending Denver Center
Tue 12:45:00 PM 39.8617 -104.6732 180° South  Level Estimated
Tue 12:52:00 PM 39.8617 -104.6732 North  Level Estimated
Tue 12:53:00 PM 39.8617 -104.6732 North  Level Estimated

Login

Don't have an account? Register now (free) for customized features, flight alerts, and more!